createdAt,value
2023-02-11T00:02:47.996Z,19.07
2023-02-11T00:06:49.528Z,18.63
2023-02-11T00:10:55.072Z,19.30
2023-02-11T00:14:56.564Z,19.00
2023-02-11T00:19:01.977Z,21.03
2023-02-11T00:23:03.306Z,22.53
2023-02-11T00:27:04.655Z,18.93
2023-02-11T00:31:06.158Z,18.33
2023-02-11T00:35:08.157Z,21.27
2023-02-11T00:39:09.602Z,18.53
2023-02-11T00:43:10.918Z,17.77
2023-02-11T00:47:12.381Z,16.70
2023-02-11T00:51:13.829Z,17.20
2023-02-11T00:55:15.784Z,17.27
2023-02-11T00:59:17.149Z,18.00
2023-02-11T01:03:18.446Z,19.67
2023-02-11T01:07:19.795Z,17.03
2023-02-11T01:11:21.847Z,17.40
2023-02-11T01:15:23.292Z,17.20
2023-02-11T01:19:24.621Z,17.40
2023-02-11T01:23:26.020Z,18.20
2023-02-11T01:27:27.314Z,18.13
2023-02-11T01:31:30.445Z,17.67
2023-02-11T01:35:31.929Z,20.87
2023-02-11T01:39:34.282Z,18.83
2023-02-11T01:43:39.624Z,18.90
2023-02-11T01:47:40.958Z,19.40
2023-02-11T01:51:50.962Z,20.13
2023-02-11T01:56:12.616Z,20.07
2023-02-11T02:00:27.291Z,20.17
2023-02-11T02:04:33.055Z,19.63
2023-02-11T02:08:37.741Z,20.20
2023-02-11T02:12:39.175Z,18.27
2023-02-11T02:16:40.587Z,21.77
2023-02-11T02:21:03.148Z,20.30
2023-02-11T02:25:24.852Z,19.10
2023-02-11T02:30:01.957Z,20.00
2023-02-11T02:34:44.736Z,22.50
2023-02-11T02:39:04.108Z,22.23
2023-02-11T02:43:10.688Z,20.47
2023-02-11T02:47:12.027Z,22.03
2023-02-11T02:51:41.299Z,20.60
2023-02-11T02:56:06.421Z,21.47
2023-02-11T03:00:37.347Z,21.27
2023-02-11T03:04:52.105Z,22.43
2023-02-11T03:08:59.648Z,22.57
2023-02-11T03:13:03.041Z,23.57
2023-02-11T03:17:06.406Z,23.70
2023-02-11T03:21:09.917Z,22.93
2023-02-11T03:25:11.454Z,23.50
2023-02-11T03:29:32.234Z,22.93
2023-02-11T03:33:53.239Z,24.50
2023-02-11T03:38:06.350Z,22.90
2023-02-11T03:42:10.582Z,23.93
2023-02-11T03:46:15.041Z,23.50
2023-02-11T03:50:18.424Z,22.63
2023-02-11T03:54:29.099Z,23.23
2023-02-11T03:58:30.762Z,22.37
2023-02-11T04:02:34.864Z,21.63
2023-02-11T04:06:36.338Z,21.47
2023-02-11T04:10:37.708Z,20.93
2023-02-11T04:14:39.111Z,20.20
2023-02-11T04:18:40.366Z,20.90
2023-02-11T04:22:41.726Z,20.73
2023-02-11T04:26:43.082Z,21.27
2023-02-11T04:30:44.514Z,20.70
2023-02-11T04:34:45.942Z,21.37
2023-02-11T04:38:47.238Z,20.57
2023-02-11T04:42:48.564Z,21.57
2023-02-11T04:46:49.916Z,20.80
2023-02-11T04:50:51.371Z,20.63
2023-02-11T04:54:52.650Z,19.30
2023-02-11T04:58:54.108Z,20.07
2023-02-11T05:02:55.421Z,20.50
2023-02-11T05:06:58.652Z,19.47
2023-02-11T05:11:02.010Z,20.10
2023-02-11T05:15:03.458Z,20.30
2023-02-11T05:19:04.933Z,19.73
2023-02-11T05:23:06.378Z,19.83
2023-02-11T05:27:07.711Z,19.47
2023-02-11T05:31:09.650Z,20.97
2023-02-11T05:35:11.125Z,20.80
2023-02-11T05:39:12.472Z,20.93
2023-02-11T05:43:13.780Z,20.90
2023-02-11T05:47:15.065Z,21.00
2023-02-11T05:51:16.399Z,21.50
2023-02-11T05:55:18.127Z,21.20
2023-02-11T05:59:19.674Z,21.47
2023-02-11T06:03:21.013Z,21.10
2023-02-11T06:07:22.409Z,22.23
2023-02-11T06:11:23.776Z,21.30
2023-02-11T06:15:25.300Z,21.57
2023-02-11T06:19:27.159Z,22.30
2023-02-11T06:23:30.322Z,22.60
2023-02-11T06:27:31.973Z,22.63
2023-02-11T06:31:33.406Z,22.47
2023-02-11T06:35:35.336Z,21.63
2023-02-11T06:39:36.875Z,21.90
2023-02-11T06:43:38.419Z,22.57
2023-02-11T06:47:40.698Z,22.40
2023-02-11T06:51:42.028Z,22.60
2023-02-11T06:55:43.401Z,24.20
2023-02-11T06:59:44.731Z,22.47
2023-02-11T07:03:46.970Z,22.63
2023-02-11T07:07:48.348Z,23.43
2023-02-11T07:11:49.705Z,22.33
2023-02-11T07:15:51.324Z,23.10
2023-02-11T07:19:52.830Z,22.10
2023-02-11T07:23:54.411Z,23.30
2023-02-11T07:27:55.800Z,22.93
2023-02-11T07:31:57.407Z,23.97
2023-02-11T07:36:00.818Z,23.63
2023-02-11T07:40:02.386Z,24.00
2023-02-11T07:44:03.899Z,24.80
2023-02-11T07:48:05.377Z,24.43
2023-02-11T07:52:06.635Z,24.20
2023-02-11T07:56:09.821Z,24.00
2023-02-11T08:00:11.869Z,25.17
2023-02-11T08:04:13.335Z,23.90
2023-02-11T08:08:14.717Z,25.03
2023-02-11T08:12:16.262Z,24.60
2023-02-11T08:16:21.272Z,25.10
2023-02-11T08:20:22.640Z,25.27
2023-02-11T08:24:24.020Z,25.73
2023-02-11T08:28:25.455Z,25.90
2023-02-11T08:32:26.858Z,25.80
2023-02-11T08:36:30.813Z,26.20
2023-02-11T08:40:32.151Z,23.87
2023-02-11T08:44:33.426Z,25.03
2023-02-11T08:48:35.025Z,25.17
2023-02-11T08:52:36.643Z,26.07
2023-02-11T08:56:39.009Z,24.47
2023-02-11T09:00:40.426Z,24.43
2023-02-11T09:04:41.803Z,23.43
2023-02-11T09:08:46.885Z,23.73
2023-02-11T09:12:48.156Z,23.90
2023-02-11T09:16:51.131Z,23.03
2023-02-11T09:20:52.822Z,23.63
2023-02-11T09:24:54.341Z,23.50
2023-02-11T09:28:56.307Z,22.80
2023-02-11T09:32:57.583Z,24.10
2023-02-11T09:36:58.963Z,23.63
2023-02-11T09:41:03.899Z,22.53
2023-02-11T09:45:10.498Z,22.77
2023-02-11T09:49:21.767Z,23.23
2023-02-11T09:53:33.302Z,23.53
2023-02-11T09:57:36.784Z,22.50
2023-02-11T10:01:55.027Z,22.70
2023-02-11T10:06:36.613Z,22.80
2023-02-11T10:11:04.621Z,20.73
2023-02-11T10:15:12.297Z,22.00
2023-02-11T10:19:26.856Z,20.77
2023-02-11T10:23:36.041Z,20.77
2023-02-11T10:27:37.346Z,21.57
2023-02-11T10:31:44.856Z,22.23
2023-02-11T10:35:46.246Z,20.33
2023-02-11T10:39:48.678Z,21.43
2023-02-11T10:43:50.919Z,22.17
2023-02-11T10:47:52.391Z,20.97
2023-02-11T10:52:13.492Z,21.03
2023-02-11T10:56:24.285Z,21.37
2023-02-11T11:00:36.869Z,21.23
2023-02-11T11:04:45.190Z,20.47
2023-02-11T11:08:51.642Z,21.27
2023-02-11T11:12:53.050Z,20.30
2023-02-11T11:16:55.727Z,20.87
2023-02-11T11:21:05.779Z,21.37
2023-02-11T11:25:32.868Z,21.00
2023-02-11T11:29:42.982Z,21.33
2023-02-11T11:33:45.848Z,21.67
2023-02-11T11:38:03.776Z,22.10
2023-02-11T11:42:24.342Z,21.93
2023-02-11T11:46:38.037Z,22.23
2023-02-11T11:50:45.489Z,21.67
2023-02-11T11:54:55.389Z,22.07
2023-02-11T11:58:56.815Z,22.23
2023-02-11T12:03:52.461Z,20.50
2023-02-11T12:08:16.178Z,21.60
2023-02-11T12:12:41.029Z,22.70
2023-02-11T12:17:10.913Z,22.10
2023-02-11T12:21:33.181Z,22.13
2023-02-11T12:25:46.462Z,22.40
2023-02-11T12:30:03.221Z,21.83
2023-02-11T12:34:39.112Z,22.93
2023-02-11T12:39:02.541Z,22.67
2023-02-11T12:43:16.444Z,21.83
2023-02-11T12:47:55.805Z,25.93
2023-02-11T12:52:17.769Z,22.97
2023-02-11T12:56:39.592Z,23.97
2023-02-11T13:00:51.308Z,23.70
2023-02-11T13:05:14.338Z,23.47
2023-02-11T13:09:27.038Z,23.43
2023-02-11T13:13:39.094Z,23.00
2023-02-11T13:17:50.222Z,24.07
2023-02-11T13:22:09.168Z,24.80
2023-02-11T13:26:40.485Z,24.77
2023-02-11T13:30:47.166Z,25.53
2023-02-11T13:34:51.660Z,25.57
2023-02-11T13:38:57.013Z,25.33
2023-02-11T13:43:01.179Z,25.23
2023-02-11T13:47:05.277Z,24.23
2023-02-11T13:51:12.524Z,25.40
2023-02-11T13:55:13.760Z,24.67
2023-02-11T13:59:33.445Z,25.83
2023-02-11T14:03:57.872Z,26.30
2023-02-11T14:08:38.876Z,27.00
2023-02-11T14:12:40.772Z,26.50
2023-02-11T14:17:11.273Z,25.20
2023-02-11T14:21:20.184Z,26.33
2023-02-11T14:25:25.571Z,26.67
2023-02-11T14:29:44.012Z,26.77
2023-02-11T14:34:04.431Z,27.23
2023-02-11T14:38:34.271Z,27.50
2023-02-11T14:42:38.272Z,27.60
2023-02-11T14:46:45.114Z,26.00
2023-02-11T14:50:51.876Z,25.90
2023-02-11T14:55:21.656Z,26.17
2023-02-11T14:59:23.040Z,25.83
2023-02-11T15:03:36.054Z,25.97
2023-02-11T15:07:37.495Z,27.27
2023-02-11T15:11:41.514Z,28.10
2023-02-11T15:15:46.364Z,25.80
2023-02-11T15:19:53.044Z,27.17
2023-02-11T15:24:02.959Z,28.37
2023-02-11T15:28:20.882Z,26.93
2023-02-11T15:32:25.355Z,27.13
2023-02-11T15:36:34.192Z,25.57
2023-02-11T15:40:37.231Z,26.10
2023-02-11T15:44:38.626Z,26.87
2023-02-11T15:48:47.285Z,25.47
2023-02-11T15:52:49.742Z,26.07
2023-02-11T15:56:55.357Z,25.30
2023-02-11T16:00:59.866Z,24.83
2023-02-11T16:05:08.414Z,26.00
2023-02-11T16:09:12.323Z,26.63
2023-02-11T16:13:13.652Z,27.40
2023-02-11T16:17:17.997Z,26.73
2023-02-11T16:21:21.367Z,25.33
2023-02-11T16:25:23.574Z,27.03
2023-02-11T16:29:27.958Z,26.13
2023-02-11T16:33:29.827Z,26.57
2023-02-11T16:37:32.207Z,26.53
2023-02-11T16:41:33.716Z,28.03
2023-02-11T16:45:38.034Z,27.07
2023-02-11T16:49:42.789Z,29.27
2023-02-11T16:53:44.102Z,29.50
2023-02-11T16:57:45.420Z,26.60
2023-02-11T17:01:49.253Z,29.10
2023-02-11T17:05:55.617Z,27.97
2023-02-11T17:09:57.174Z,27.43
2023-02-11T17:13:58.516Z,28.33
2023-02-11T17:17:59.888Z,29.10
2023-02-11T17:22:01.598Z,28.80
2023-02-11T17:26:03.578Z,29.30
2023-02-11T17:30:05.895Z,30.30
2023-02-11T17:34:07.664Z,32.33
2023-02-11T17:38:09.021Z,29.10
2023-02-11T17:42:11.718Z,32.10
2023-02-11T17:46:14.107Z,31.97
2023-02-11T17:50:15.625Z,33.17
2023-02-11T17:54:19.217Z,30.37
2023-02-11T17:58:20.609Z,30.03
2023-02-11T18:02:21.936Z,28.47
2023-02-11T18:06:23.573Z,28.03
2023-02-11T18:10:24.948Z,31.10
2023-02-11T18:14:26.351Z,32.73
2023-02-11T18:18:27.733Z,31.53
2023-02-11T18:22:30.796Z,32.57
2023-02-11T18:26:32.243Z,31.00
2023-02-11T18:30:33.953Z,31.37
2023-02-11T18:34:35.278Z,30.20
2023-02-11T18:38:37.025Z,28.90
2023-02-11T18:42:38.567Z,31.70
2023-02-11T18:46:41.744Z,29.90
2023-02-11T18:50:44.706Z,29.13
2023-02-11T18:54:46.162Z,31.47
2023-02-11T18:58:48.112Z,31.70
2023-02-11T19:02:49.448Z,31.53
2023-02-11T19:06:50.954Z,29.83
2023-02-11T19:10:52.295Z,31.00
2023-02-11T19:14:53.723Z,31.60
2023-02-11T19:18:56.811Z,31.93
2023-02-11T19:22:58.127Z,32.43
2023-02-11T19:27:02.657Z,32.70
2023-02-11T19:31:09.050Z,31.63
2023-02-11T19:35:10.680Z,32.20
2023-02-11T19:39:12.643Z,32.57
2023-02-11T19:43:13.909Z,31.70
2023-02-11T19:47:15.249Z,33.80
2023-02-11T19:51:17.417Z,33.37
2023-02-11T19:55:18.886Z,36.90
2023-02-11T19:59:20.952Z,34.87
2023-02-11T20:03:22.243Z,34.67
2023-02-11T20:07:23.636Z,35.17
2023-02-11T20:11:26.791Z,34.77
2023-02-11T20:15:28.172Z,33.43
2023-02-11T20:19:30.636Z,32.93
2023-02-11T20:23:32.058Z,35.13
2023-02-11T20:27:33.526Z,34.23
2023-02-11T20:31:35.062Z,33.17
2023-02-11T20:35:36.594Z,34.73
2023-02-11T20:39:40.886Z,34.10
2023-02-11T20:43:45.801Z,33.63
2023-02-11T20:47:47.191Z,34.30
2023-02-11T20:51:49.258Z,33.10
2023-02-11T20:55:50.914Z,34.73
2023-02-11T20:59:52.573Z,34.53
2023-02-11T21:04:00.136Z,34.43
2023-02-11T21:08:01.566Z,33.70
2023-02-11T21:12:03.146Z,32.10
2023-02-11T21:16:05.096Z,32.70
2023-02-11T21:20:07.116Z,34.27
2023-02-11T21:24:10.105Z,35.67
2023-02-11T21:28:11.497Z,34.53
2023-02-11T21:32:12.942Z,33.63
2023-02-11T21:36:14.998Z,33.13
2023-02-11T21:40:16.766Z,35.10
2023-02-11T21:44:18.848Z,36.13
2023-02-11T21:48:20.213Z,34.47
2023-02-11T21:52:21.572Z,33.83
2023-02-11T21:56:23.510Z,36.20
2023-02-11T22:00:25.022Z,34.40
2023-02-11T22:04:26.555Z,36.50
2023-02-11T22:08:30.324Z,36.73
2023-02-11T22:12:31.664Z,35.27
2023-02-11T22:16:33.214Z,34.87
2023-02-11T22:20:34.567Z,34.93
2023-02-11T22:24:36.351Z,32.83
2023-02-11T22:28:40.383Z,35.63
2023-02-11T22:32:42.456Z,36.83
2023-02-11T22:36:45.295Z,35.50
2023-02-11T22:40:46.632Z,33.17
2023-02-11T22:44:48.017Z,34.77
2023-02-11T22:48:50.037Z,34.70
2023-02-11T22:52:51.353Z,34.40
2023-02-11T22:56:53.342Z,34.63
2023-02-11T23:00:54.630Z,34.43
2023-02-11T23:04:56.052Z,34.27
2023-02-11T23:08:57.447Z,34.27
2023-02-11T23:12:58.716Z,33.47
2023-02-11T23:17:00.154Z,34.20
2023-02-11T23:21:12.457Z,35.10
2023-02-11T23:25:14.190Z,36.70
2023-02-11T23:29:15.558Z,34.87
2023-02-11T23:33:16.936Z,36.67
2023-02-11T23:37:18.533Z,36.83
2023-02-11T23:41:20.276Z,36.53
2023-02-11T23:45:22.519Z,36.00
2023-02-11T23:49:23.922Z,39.87
2023-02-11T23:53:25.265Z,38.87
2023-02-11T23:57:26.605Z,36.73
